createdAt,value
2022-12-04T00:01:25.443Z,1.00
2022-12-04T00:03:54.746Z,1.00
2022-12-04T00:06:23.642Z,1.00
2022-12-04T00:08:53.928Z,1.00
2022-12-04T00:11:24.571Z,1.00
2022-12-04T00:13:53.107Z,1.00
2022-12-04T00:16:23.300Z,1.70
2022-12-04T00:18:51.760Z,1.10
2022-12-04T00:21:21.144Z,1.00
2022-12-04T00:23:49.610Z,1.30
2022-12-04T00:26:21.463Z,1.10
2022-12-04T00:28:50.340Z,1.00
2022-12-04T00:31:21.024Z,1.40
2022-12-04T00:33:49.604Z,1.20
2022-12-04T00:36:19.916Z,1.00
2022-12-04T00:38:48.784Z,1.00
2022-12-04T00:41:19.990Z,1.00
2022-12-04T00:43:48.476Z,0.90
2022-12-04T00:46:17.110Z,0.90
2022-12-04T00:48:45.287Z,1.40
2022-12-04T00:51:16.230Z,1.30
2022-12-04T00:53:44.558Z,0.90
2022-12-04T00:56:15.689Z,1.00
2022-12-04T00:58:47.211Z,1.00
2022-12-04T01:01:17.633Z,0.90
2022-12-04T01:03:46.627Z,0.90
2022-12-04T01:06:23.290Z,0.90
2022-12-04T01:08:52.421Z,0.90
2022-12-04T01:11:21.932Z,0.90
2022-12-04T01:13:51.796Z,1.50
2022-12-04T01:16:23.423Z,0.90
2022-12-04T01:18:51.620Z,0.90
2022-12-04T01:21:20.172Z,0.90
2022-12-04T01:23:48.578Z,1.40
2022-12-04T01:26:16.879Z,0.90
2022-12-04T01:28:45.295Z,0.90
2022-12-04T01:31:16.489Z,0.90
2022-12-04T01:33:45.471Z,0.90
2022-12-04T01:36:16.029Z,1.30
2022-12-04T01:38:44.524Z,0.90
2022-12-04T01:41:14.906Z,0.90
2022-12-04T01:43:43.151Z,1.00
2022-12-04T01:46:12.395Z,0.90
2022-12-04T01:48:47.139Z,1.00
2022-12-04T01:51:18.802Z,0.90
2022-12-04T01:53:50.703Z,1.30
2022-12-04T01:56:20.668Z,0.90
2022-12-04T01:58:53.549Z,0.90
2022-12-04T02:01:22.098Z,0.90
2022-12-04T02:03:51.725Z,0.90
2022-12-04T02:06:19.830Z,0.90
2022-12-04T02:08:48.031Z,0.90
2022-12-04T02:11:28.870Z,0.90
2022-12-04T02:14:04.458Z,1.50
2022-12-04T02:16:41.018Z,1.50
2022-12-04T02:19:34.143Z,0.90
2022-12-04T02:22:11.270Z,0.90
2022-12-04T02:24:52.260Z,1.00
2022-12-04T02:27:36.266Z,0.90
2022-12-04T02:30:07.964Z,0.90
2022-12-04T02:32:42.489Z,0.90
2022-12-04T02:35:16.129Z,0.90
2022-12-04T02:37:47.597Z,0.90
2022-12-04T02:40:21.935Z,0.90
2022-12-04T02:42:54.997Z,1.00
2022-12-04T02:45:28.753Z,0.90
2022-12-04T02:47:58.335Z,0.90
2022-12-04T02:50:28.012Z,0.80
2022-12-04T02:53:00.207Z,0.90
2022-12-04T02:55:32.636Z,0.90
2022-12-04T02:58:06.913Z,0.90
2022-12-04T03:00:38.093Z,0.90
2022-12-04T03:03:09.977Z,1.20
2022-12-04T03:05:42.309Z,1.60
2022-12-04T03:08:15.533Z,0.90
2022-12-04T03:10:49.579Z,0.90
2022-12-04T03:13:21.633Z,1.20
2022-12-04T03:15:55.462Z,1.70
2022-12-04T03:18:28.044Z,0.90
2022-12-04T03:21:00.816Z,0.90
2022-12-04T03:23:33.391Z,1.00
2022-12-04T03:26:05.848Z,1.00
2022-12-04T03:28:38.941Z,1.00
2022-12-04T03:31:10.552Z,1.00
2022-12-04T03:33:42.186Z,1.00
2022-12-04T03:36:17.887Z,1.00
2022-12-04T03:38:51.179Z,1.00
2022-12-04T03:41:28.330Z,1.60
2022-12-04T03:44:03.939Z,1.00
2022-12-04T03:46:39.999Z,1.00
2022-12-04T03:49:13.990Z,0.70
2022-12-04T03:51:49.239Z,1.00
2022-12-04T03:54:20.458Z,0.90
2022-12-04T03:56:53.065Z,0.90
2022-12-04T03:59:25.516Z,0.90
2022-12-04T04:01:58.963Z,0.90
2022-12-04T04:04:30.777Z,1.70
2022-12-04T04:07:04.039Z,0.90
2022-12-04T04:09:38.644Z,1.80
2022-12-04T04:12:09.743Z,1.00
2022-12-04T04:15:00.402Z,0.90
2022-12-04T04:17:52.417Z,1.00
2022-12-04T04:20:42.321Z,0.90
2022-12-04T04:23:30.649Z,1.00
2022-12-04T04:26:00.837Z,1.00
2022-12-04T04:28:34.521Z,1.00
2022-12-04T04:31:20.999Z,0.90
2022-12-04T04:33:58.546Z,0.90
2022-12-04T04:36:36.085Z,1.30
2022-12-04T04:39:10.301Z,0.90
2022-12-04T04:41:45.181Z,0.90
2022-12-04T04:44:20.194Z,0.90
2022-12-04T04:46:52.644Z,0.40
2022-12-04T04:49:27.055Z,0.90
2022-12-04T04:51:56.000Z,0.90
2022-12-04T04:54:25.152Z,1.60
2022-12-04T04:56:53.309Z,1.50
2022-12-04T04:59:21.510Z,1.00
2022-12-04T05:01:49.803Z,0.90
2022-12-04T05:04:18.001Z,1.30
2022-12-04T05:06:48.995Z,0.90
2022-12-04T05:09:17.147Z,0.90
2022-12-04T05:11:45.278Z,0.90
2022-12-04T05:14:13.383Z,0.90
2022-12-04T05:16:41.746Z,1.00
2022-12-04T05:19:27.127Z,0.80
2022-12-04T05:21:57.196Z,0.90
2022-12-04T05:24:25.340Z,1.20
2022-12-04T05:26:53.467Z,0.90
2022-12-04T05:29:21.632Z,0.90
2022-12-04T05:31:49.770Z,1.20
2022-12-04T05:34:17.917Z,0.90
2022-12-04T05:36:46.115Z,1.00
2022-12-04T05:39:15.649Z,0.90
2022-12-04T05:41:43.802Z,0.90
2022-12-04T05:44:11.997Z,0.90
2022-12-04T05:46:40.316Z,1.50
2022-12-04T05:49:08.572Z,0.90
2022-12-04T05:51:36.819Z,0.90
2022-12-04T05:54:05.044Z,1.00
2022-12-04T05:56:34.652Z,0.90
2022-12-04T05:59:02.904Z,0.90
2022-12-04T06:01:31.275Z,0.90
2022-12-04T06:03:59.435Z,0.90
2022-12-04T06:06:28.364Z,0.90
2022-12-04T06:08:58.811Z,1.20
2022-12-04T06:11:30.181Z,0.90
2022-12-04T06:14:00.964Z,0.60
2022-12-04T06:16:31.225Z,0.90
2022-12-04T06:19:01.103Z,0.90
2022-12-04T06:21:32.212Z,1.00
2022-12-04T06:24:00.544Z,0.90
2022-12-04T06:26:29.170Z,0.90
2022-12-04T06:28:59.390Z,1.00
2022-12-04T06:31:29.844Z,1.50
2022-12-04T06:33:59.071Z,0.90
2022-12-04T06:36:27.386Z,0.90
2022-12-04T06:38:57.422Z,0.90
2022-12-04T06:41:27.443Z,0.90
2022-12-04T06:43:56.193Z,0.90
2022-12-04T06:46:29.656Z,0.90
2022-12-04T06:48:59.456Z,1.00
2022-12-04T06:51:30.285Z,0.80
2022-12-04T06:53:59.198Z,1.00
2022-12-04T06:56:28.910Z,1.60
2022-12-04T06:58:58.678Z,1.60
2022-12-04T07:01:30.631Z,0.90
2022-12-04T07:03:59.518Z,1.00
2022-12-04T07:06:31.118Z,0.90
2022-12-04T07:09:01.224Z,0.90
2022-12-04T07:11:29.948Z,0.90
2022-12-04T07:13:58.265Z,0.90
2022-12-04T07:16:31.799Z,0.90
2022-12-04T07:19:03.546Z,0.90
2022-12-04T07:21:33.444Z,0.90
2022-12-04T07:24:02.425Z,0.90
2022-12-04T07:26:31.459Z,1.00
2022-12-04T07:29:00.437Z,1.70
2022-12-04T07:31:30.641Z,1.50
2022-12-04T07:33:59.500Z,0.90
2022-12-04T07:36:28.795Z,0.90
2022-12-04T07:38:57.716Z,0.90
2022-12-04T07:41:25.762Z,1.00
2022-12-04T07:43:54.550Z,1.00
2022-12-04T07:46:27.495Z,1.00
2022-12-04T07:48:59.173Z,1.00
2022-12-04T07:51:29.145Z,1.00
2022-12-04T07:54:03.225Z,1.00
2022-12-04T07:56:32.448Z,1.00
2022-12-04T07:59:00.629Z,1.00
2022-12-04T08:01:28.815Z,1.30
2022-12-04T08:04:00.180Z,1.30
2022-12-04T08:06:30.294Z,1.00
2022-12-04T08:08:58.548Z,1.00
2022-12-04T08:11:28.618Z,1.00
2022-12-04T08:13:57.467Z,1.20
2022-12-04T08:16:26.497Z,1.00
2022-12-04T08:18:55.188Z,1.00
2022-12-04T08:21:26.916Z,1.00
2022-12-04T08:23:56.874Z,1.00
2022-12-04T08:26:26.790Z,1.00
2022-12-04T08:28:55.723Z,1.00
2022-12-04T08:31:25.277Z,1.00
2022-12-04T08:33:56.920Z,1.00
2022-12-04T08:36:26.894Z,1.00
2022-12-04T08:38:55.148Z,1.00
2022-12-04T08:41:27.556Z,1.00
2022-12-04T08:43:58.279Z,0.90
2022-12-04T08:46:28.658Z,0.90
2022-12-04T08:48:57.846Z,0.90
2022-12-04T08:51:29.672Z,1.00
2022-12-04T08:53:59.582Z,1.00
2022-12-04T08:56:29.412Z,1.00
2022-12-04T08:58:58.276Z,1.00
2022-12-04T09:01:27.985Z,1.00
2022-12-04T09:04:01.189Z,1.00
2022-12-04T09:06:32.140Z,1.00
2022-12-04T09:09:00.275Z,1.30
2022-12-04T09:11:30.829Z,1.10
2022-12-04T09:13:58.925Z,1.10
2022-12-04T09:16:27.995Z,1.10
2022-12-04T09:18:59.228Z,1.10
2022-12-04T09:21:30.672Z,1.10
2022-12-04T09:24:00.868Z,1.10
2022-12-04T09:26:31.530Z,1.00
2022-12-04T09:29:01.923Z,1.10
2022-12-04T09:31:30.345Z,1.30
2022-12-04T09:34:00.480Z,1.10
2022-12-04T09:36:30.504Z,1.10
2022-12-04T09:39:02.103Z,1.10
2022-12-04T09:41:51.482Z,1.50
2022-12-04T09:44:27.581Z,1.10
2022-12-04T09:47:02.914Z,1.20
2022-12-04T09:49:39.795Z,1.10
2022-12-04T09:52:22.050Z,1.20
2022-12-04T09:54:54.199Z,1.20
2022-12-04T09:57:30.275Z,1.20
2022-12-04T10:00:00.221Z,1.10
2022-12-04T10:02:40.098Z,1.20
2022-12-04T10:05:20.634Z,1.20
2022-12-04T10:08:01.156Z,1.10
2022-12-04T10:10:39.526Z,1.20
2022-12-04T10:13:31.071Z,1.40
2022-12-04T10:16:08.488Z,1.20
2022-12-04T10:18:45.806Z,1.20
2022-12-04T10:21:30.775Z,1.40
2022-12-04T10:24:16.738Z,1.30
2022-12-04T10:26:52.862Z,1.30
2022-12-04T10:29:27.236Z,1.40
2022-12-04T10:31:58.509Z,1.40
2022-12-04T10:34:29.414Z,1.40
2022-12-04T10:37:05.614Z,1.40
2022-12-04T10:39:41.439Z,1.40
2022-12-04T10:42:26.917Z,1.40
2022-12-04T10:44:59.379Z,1.40
2022-12-04T10:47:34.005Z,1.40
2022-12-04T10:50:06.948Z,1.50
2022-12-04T10:52:35.246Z,1.50
2022-12-04T10:55:07.358Z,1.50
2022-12-04T10:57:38.595Z,1.50
2022-12-04T11:00:25.601Z,1.50
2022-12-04T11:02:58.854Z,1.50
2022-12-04T11:05:32.569Z,1.60
2022-12-04T11:08:12.545Z,1.60
2022-12-04T11:10:57.602Z,1.60
2022-12-04T11:13:27.604Z,1.60
2022-12-04T11:15:58.987Z,1.60
2022-12-04T11:18:31.344Z,1.80
2022-12-04T11:21:02.910Z,1.60
2022-12-04T11:23:36.624Z,1.60
2022-12-04T11:26:07.094Z,1.60
2022-12-04T11:28:43.857Z,1.70
2022-12-04T11:31:19.500Z,1.70
2022-12-04T11:33:51.801Z,1.60
2022-12-04T11:36:26.749Z,1.70
2022-12-04T11:39:07.727Z,1.60
2022-12-04T11:41:41.012Z,1.60
2022-12-04T11:44:24.727Z,1.70
2022-12-04T11:46:56.880Z,1.60
2022-12-04T11:49:29.591Z,1.70
2022-12-04T11:52:29.134Z,1.70
2022-12-04T11:55:06.853Z,1.70
2022-12-04T11:57:45.474Z,1.80
2022-12-04T12:00:18.798Z,1.80
2022-12-04T12:03:16.713Z,1.80
2022-12-04T12:06:11.367Z,1.80
2022-12-04T12:08:54.813Z,1.80
2022-12-04T12:11:28.353Z,1.80
2022-12-04T12:14:08.613Z,1.80
2022-12-04T12:16:51.642Z,1.90
2022-12-04T12:19:56.277Z,1.90
2022-12-04T12:22:37.387Z,1.80
2022-12-04T12:25:16.667Z,1.80
2022-12-04T12:28:04.499Z,1.80
2022-12-04T12:30:44.575Z,1.80
2022-12-04T12:33:28.126Z,1.90
2022-12-04T12:36:02.654Z,1.90
2022-12-04T12:38:36.358Z,1.80
2022-12-04T12:41:12.503Z,1.90
2022-12-04T12:43:46.798Z,1.90
2022-12-04T12:46:19.197Z,1.80
2022-12-04T12:48:58.371Z,1.80
2022-12-04T12:51:37.494Z,1.80
2022-12-04T12:54:15.635Z,1.80
2022-12-04T12:56:51.874Z,1.80
2022-12-04T12:59:23.673Z,1.80
2022-12-04T13:02:03.912Z,1.70
2022-12-04T13:04:39.811Z,1.70
2022-12-04T13:07:22.405Z,1.70
2022-12-04T13:09:57.764Z,1.80
2022-12-04T13:12:27.382Z,1.80
2022-12-04T13:14:55.414Z,1.70
2022-12-04T13:17:33.155Z,1.70
2022-12-04T13:20:10.239Z,1.70
2022-12-04T13:22:50.727Z,1.70
2022-12-04T13:25:34.190Z,1.60
2022-12-04T13:28:16.922Z,1.70
2022-12-04T13:30:50.936Z,1.70
2022-12-04T13:33:57.275Z,1.70
2022-12-04T13:36:55.158Z,1.70
2022-12-04T13:39:56.163Z,1.60
2022-12-04T13:42:27.100Z,1.70
2022-12-04T13:44:57.939Z,1.70
2022-12-04T13:47:32.890Z,1.60
2022-12-04T13:50:27.035Z,1.60
2022-12-04T13:52:55.056Z,1.60
2022-12-04T13:55:31.510Z,1.60
2022-12-04T13:58:02.137Z,1.60
2022-12-04T14:00:33.413Z,1.60
2022-12-04T14:03:05.529Z,1.60
2022-12-04T14:05:42.853Z,1.60
2022-12-04T14:08:25.849Z,1.60
2022-12-04T14:11:03.481Z,1.60
2022-12-04T14:13:44.520Z,2.10
2022-12-04T14:16:24.189Z,1.60
2022-12-04T14:18:55.605Z,1.60
2022-12-04T14:21:25.887Z,1.80
2022-12-04T14:23:54.900Z,1.70
2022-12-04T14:26:37.254Z,1.60
2022-12-04T14:29:34.014Z,1.60
2022-12-04T14:32:10.604Z,2.00
2022-12-04T14:34:39.599Z,1.60
2022-12-04T14:37:21.286Z,1.60
2022-12-04T14:39:50.681Z,1.90
2022-12-04T14:42:26.730Z,1.60
2022-12-04T14:44:57.362Z,1.60
2022-12-04T14:47:43.961Z,1.90
2022-12-04T14:50:30.851Z,1.60
2022-12-04T14:53:06.596Z,1.50
2022-12-04T14:55:42.743Z,1.50
2022-12-04T14:58:31.939Z,1.70
2022-12-04T15:01:02.244Z,1.50
2022-12-04T15:03:32.978Z,1.50
2022-12-04T15:06:06.982Z,1.50
2022-12-04T15:08:36.725Z,1.50
2022-12-04T15:11:25.353Z,1.50
2022-12-04T15:13:53.464Z,1.40
2022-12-04T15:16:23.937Z,1.40
2022-12-04T15:18:56.131Z,1.40
2022-12-04T15:21:25.684Z,1.40
2022-12-04T15:23:55.163Z,2.00
2022-12-04T15:26:26.894Z,1.40
2022-12-04T15:28:59.144Z,1.40
2022-12-04T15:31:31.935Z,1.40
2022-12-04T15:34:02.348Z,1.40
2022-12-04T15:36:45.336Z,1.70
2022-12-04T15:39:19.811Z,1.40
2022-12-04T15:41:48.150Z,1.40
2022-12-04T15:44:28.811Z,1.40
2022-12-04T15:46:59.532Z,1.40
2022-12-04T15:49:28.959Z,1.40
2022-12-04T15:52:06.757Z,1.40
2022-12-04T15:54:37.186Z,1.30
2022-12-04T15:57:08.703Z,1.40
2022-12-04T15:59:37.428Z,1.40
2022-12-04T16:02:21.836Z,1.40
2022-12-04T16:04:50.099Z,1.40
2022-12-04T16:07:23.511Z,1.70
2022-12-04T16:09:59.542Z,1.40
2022-12-04T16:12:33.088Z,1.40
2022-12-04T16:15:01.100Z,1.40
2022-12-04T16:17:31.831Z,1.40
2022-12-04T16:20:00.743Z,1.40
2022-12-04T16:22:30.080Z,1.30
2022-12-04T16:24:59.775Z,1.40
2022-12-04T16:27:28.085Z,1.30
2022-12-04T16:29:56.192Z,1.30
2022-12-04T16:32:29.734Z,1.40
2022-12-04T16:34:58.042Z,1.30
2022-12-04T16:37:27.837Z,1.30
2022-12-04T16:39:55.875Z,1.30
2022-12-04T16:42:27.009Z,1.30
2022-12-04T16:44:55.895Z,1.30
2022-12-04T16:47:24.229Z,1.30
2022-12-04T16:49:53.423Z,1.30
2022-12-04T16:52:21.974Z,1.40
2022-12-04T16:54:50.007Z,1.90
2022-12-04T16:57:18.061Z,1.30
2022-12-04T16:59:47.463Z,1.30
2022-12-04T17:02:23.739Z,1.30
2022-12-04T17:04:57.221Z,1.30
2022-12-04T17:07:26.084Z,1.30
2022-12-04T17:09:54.075Z,1.30
2022-12-04T17:12:22.112Z,1.30
2022-12-04T17:14:51.481Z,1.40
2022-12-04T17:17:19.883Z,1.30
2022-12-04T17:19:48.036Z,1.30
2022-12-04T17:22:16.442Z,1.20
2022-12-04T17:24:50.334Z,1.20
2022-12-04T17:27:22.466Z,1.20
2022-12-04T17:29:53.901Z,1.20
2022-12-04T17:32:22.435Z,1.30
2022-12-04T17:34:52.415Z,1.20
2022-12-04T17:37:20.619Z,1.20
2022-12-04T17:39:48.906Z,1.50
2022-12-04T17:42:17.668Z,1.40
2022-12-04T17:44:46.402Z,1.20
2022-12-04T17:47:16.231Z,1.20
2022-12-04T17:49:44.687Z,1.20
2022-12-04T17:52:12.797Z,1.20
2022-12-04T17:54:40.907Z,1.10
2022-12-04T17:57:08.927Z,1.10
2022-12-04T17:59:37.000Z,1.10
2022-12-04T18:02:05.061Z,1.10
2022-12-04T18:04:34.459Z,1.00
2022-12-04T18:07:02.470Z,1.40
2022-12-04T18:09:31.463Z,1.00
2022-12-04T18:12:01.593Z,1.00
2022-12-04T18:14:31.908Z,1.00
2022-12-04T18:17:01.227Z,1.00
2022-12-04T18:19:30.758Z,1.10
2022-12-04T18:22:00.441Z,1.10
2022-12-04T18:24:28.700Z,1.00
2022-12-04T18:26:56.726Z,1.10
2022-12-04T18:29:26.527Z,1.10
2022-12-04T18:31:54.688Z,1.10
2022-12-04T18:34:23.024Z,1.10
2022-12-04T18:36:51.539Z,1.10
2022-12-04T18:39:23.087Z,1.10
2022-12-04T18:41:51.316Z,1.10
2022-12-04T18:44:19.577Z,1.10
2022-12-04T18:46:47.585Z,1.20
2022-12-04T18:49:15.687Z,1.10
2022-12-04T18:51:49.517Z,1.10
2022-12-04T18:54:21.880Z,1.10
2022-12-04T18:56:50.215Z,1.10
2022-12-04T18:59:20.842Z,1.10
2022-12-04T19:01:50.253Z,1.10
2022-12-04T19:04:19.566Z,1.20
2022-12-04T19:06:50.242Z,1.10
2022-12-04T19:09:35.373Z,1.10
2022-12-04T19:12:10.377Z,1.30
2022-12-04T19:14:39.728Z,1.10
2022-12-04T19:17:08.100Z,1.10
2022-12-04T19:19:36.108Z,1.10
2022-12-04T19:22:05.489Z,1.10
2022-12-04T19:24:34.887Z,1.00
2022-12-04T19:27:10.115Z,1.10
2022-12-04T19:29:38.410Z,1.10
2022-12-04T19:32:06.888Z,1.10
2022-12-04T19:34:35.046Z,1.10
2022-12-04T19:37:03.126Z,1.10
2022-12-04T19:39:31.190Z,1.10
2022-12-04T19:42:00.589Z,1.10
2022-12-04T19:47:16.694Z,1.10
2022-12-04T19:49:46.477Z,1.10
2022-12-04T19:52:15.091Z,1.10
2022-12-04T19:54:43.310Z,1.10
2022-12-04T19:57:12.904Z,1.10
2022-12-04T19:59:45.928Z,1.40
2022-12-04T20:02:15.179Z,1.50
2022-12-04T20:04:43.589Z,1.30
2022-12-04T20:07:11.587Z,1.10
2022-12-04T20:09:39.647Z,1.20
2022-12-04T20:12:08.140Z,1.10
2022-12-04T20:14:37.547Z,1.20
2022-12-04T20:17:05.663Z,1.20
2022-12-04T20:19:33.702Z,1.30
2022-12-04T20:22:01.833Z,1.10
2022-12-04T20:24:29.896Z,1.20
2022-12-04T20:26:57.914Z,1.10
2022-12-04T20:29:26.024Z,1.20
2022-12-04T20:31:55.676Z,1.20
2022-12-04T20:34:23.777Z,1.20
2022-12-04T20:36:51.823Z,1.20
2022-12-04T20:39:23.748Z,1.20
2022-12-04T20:41:51.823Z,1.20
2022-12-04T20:44:22.257Z,1.20
2022-12-04T20:46:50.385Z,1.20
2022-12-04T20:49:22.544Z,1.10
2022-12-04T20:51:52.590Z,1.20
2022-12-04T20:54:22.680Z,1.20
2022-12-04T20:56:52.888Z,1.20
2022-12-04T20:59:23.164Z,1.20
2022-12-04T21:01:52.501Z,1.40
2022-12-04T21:04:22.418Z,1.20
2022-12-04T21:06:50.606Z,1.20
2022-12-04T21:09:21.522Z,1.20
2022-12-04T21:11:51.601Z,1.30
2022-12-04T21:14:39.347Z,1.20
2022-12-04T21:17:09.534Z,1.20
2022-12-04T21:19:39.152Z,1.20
2022-12-04T21:22:07.759Z,1.20
2022-12-04T21:24:38.899Z,1.30
2022-12-04T21:27:07.954Z,1.20
2022-12-04T21:29:36.866Z,1.20
2022-12-04T21:32:06.174Z,1.20
2022-12-04T21:34:34.725Z,1.20
2022-12-04T21:37:04.175Z,1.20
2022-12-04T21:39:32.662Z,1.20
2022-12-04T21:42:18.274Z,1.40
2022-12-04T21:44:46.759Z,1.20
2022-12-04T21:47:17.356Z,1.20
2022-12-04T21:49:46.424Z,1.20
2022-12-04T21:52:16.729Z,1.20
2022-12-04T21:54:45.033Z,1.20
2022-12-04T21:57:13.078Z,1.20
2022-12-04T21:59:41.168Z,1.20
2022-12-04T22:02:09.254Z,1.20
2022-12-04T22:04:37.400Z,1.20
2022-12-04T22:07:05.499Z,1.50
2022-12-04T22:09:35.360Z,1.20
2022-12-04T22:12:10.374Z,1.10
2022-12-04T22:14:51.559Z,1.10
2022-12-04T22:17:19.632Z,1.10
2022-12-04T22:19:48.001Z,1.20
2022-12-04T22:22:16.096Z,1.20
2022-12-04T22:24:45.508Z,1.20
2022-12-04T22:27:15.368Z,1.10
2022-12-04T22:29:51.295Z,1.10
2022-12-04T22:32:19.740Z,1.70
2022-12-04T22:34:48.879Z,1.10
2022-12-04T22:37:17.022Z,1.20
2022-12-04T22:39:46.445Z,1.20
2022-12-04T22:42:14.511Z,1.20
2022-12-04T22:44:42.602Z,1.20
2022-12-04T22:47:13.008Z,1.20
2022-12-04T22:49:41.046Z,1.20
2022-12-04T22:52:09.067Z,1.20
2022-12-04T22:54:37.150Z,1.50
2022-12-04T22:57:06.596Z,1.30
2022-12-04T22:59:34.645Z,1.10
2022-12-04T23:02:02.738Z,1.50
2022-12-04T23:04:31.073Z,1.10
2022-12-04T23:06:59.187Z,1.10
2022-12-04T23:09:28.011Z,1.10
2022-12-04T23:11:57.489Z,1.70
2022-12-04T23:14:28.965Z,1.10
2022-12-04T23:16:57.668Z,1.10
2022-12-04T23:19:25.974Z,1.20
2022-12-04T23:21:57.259Z,1.10
2022-12-04T23:24:25.912Z,1.40
2022-12-04T23:26:54.029Z,1.10
2022-12-04T23:29:52.723Z,1.10
2022-12-04T23:32:11.582Z,1.10
2022-12-04T23:34:40.021Z,1.10
2022-12-04T23:37:08.115Z,1.10
2022-12-04T23:39:36.173Z,1.00
2022-12-04T23:42:04.594Z,1.00
2022-12-04T23:44:32.764Z,1.00
2022-12-04T23:47:00.937Z,1.00
2022-12-04T23:49:30.564Z,1.00
2022-12-04T23:51:58.622Z,1.00
2022-12-04T23:54:27.340Z,1.00
2022-12-04T23:56:55.741Z,1.10
2022-12-04T23:59:23.866Z,0.90
